createdAt,value
2022-09-03T00:02:24.266Z,95327.41
2022-09-03T00:05:05.742Z,95330.34
2022-09-03T00:07:42.223Z,95326.84
2022-09-03T00:10:17.561Z,95328.44
2022-09-03T00:12:49.049Z,95336.25
2022-09-03T00:15:21.640Z,95332.75
2022-09-03T00:17:55.821Z,95327.34
2022-09-03T00:20:32.002Z,95317.56
2022-09-03T00:23:05.437Z,95314.28
2022-09-03T00:25:39.867Z,95318.31
2022-09-03T00:28:17.764Z,95319.09
2022-09-03T00:30:57.318Z,95311.00
2022-09-03T00:33:29.896Z,95310.72
2022-09-03T00:36:12.533Z,95315.03
2022-09-03T00:38:41.957Z,95305.59
2022-09-03T00:41:22.431Z,95306.69
2022-09-03T00:44:21.603Z,95307.25
2022-09-03T00:46:57.527Z,95311.94
2022-09-03T00:49:38.766Z,95314.72
2022-09-03T00:52:17.174Z,95315.81
2022-09-03T00:54:57.398Z,95316.91
2022-09-03T00:57:41.546Z,95321.25
2022-09-03T01:00:15.078Z,95323.72
2022-09-03T01:03:01.186Z,95327.56
2022-09-03T01:05:56.529Z,95326.09
2022-09-03T01:08:49.247Z,95329.13
2022-09-03T01:11:27.542Z,95318.09
2022-09-03T01:14:06.467Z,95319.47
2022-09-03T01:16:46.111Z,95325.97
2022-09-03T01:19:39.905Z,95317.06
2022-09-03T01:22:32.800Z,95317.34
2022-09-03T01:25:22.695Z,95310.34
2022-09-03T01:28:20.506Z,95307.94
2022-09-03T01:30:56.418Z,95307.50
2022-09-03T01:33:32.775Z,95312.41
2022-09-03T01:36:10.165Z,95309.47
2022-09-03T01:38:44.736Z,95313.31
2022-09-03T01:41:39.783Z,95312.63
2022-09-03T01:44:18.083Z,95308.13
2022-09-03T01:46:52.182Z,95316.81
2022-09-03T01:49:26.168Z,95324.41
2022-09-03T01:52:07.126Z,95340.38
2022-09-03T01:55:03.089Z,95321.59
2022-09-03T01:57:47.271Z,95326.81
2022-09-03T02:00:20.709Z,95325.50
2022-09-03T02:02:53.042Z,95323.94
2022-09-03T02:05:24.958Z,95306.78
2022-09-03T02:08:01.066Z,95313.00
2022-09-03T02:10:35.408Z,95313.84
2022-09-03T02:13:09.756Z,95313.38
2022-09-03T02:15:47.209Z,95324.19
2022-09-03T02:18:22.444Z,95319.91
2022-09-03T02:20:54.948Z,95316.16
2022-09-03T02:23:28.228Z,95321.31
2022-09-03T02:26:00.262Z,95314.09
2022-09-03T02:28:30.914Z,95323.25
2022-09-03T02:31:02.869Z,95314.91
2022-09-03T02:33:33.922Z,95321.91
2022-09-03T02:36:05.514Z,95317.94
2022-09-03T02:38:34.978Z,95316.59
2022-09-03T02:41:08.502Z,95301.00
2022-09-03T02:43:43.674Z,95310.41
2022-09-03T02:46:19.008Z,95310.97
2022-09-03T02:48:53.250Z,95312.53
2022-09-03T02:51:22.927Z,95306.09
2022-09-03T02:53:52.956Z,95310.66
2022-09-03T02:56:26.922Z,95302.59
2022-09-03T02:58:56.327Z,95303.41
2022-09-03T03:01:28.652Z,95303.13
2022-09-03T03:03:58.203Z,95309.63
2022-09-03T03:06:28.260Z,95307.47
2022-09-03T03:08:57.824Z,95305.56
2022-09-03T03:11:28.290Z,95319.81
2022-09-03T03:14:11.654Z,95315.25
2022-09-03T03:16:42.387Z,95316.88
2022-09-03T03:19:11.749Z,95323.59
2022-09-03T03:21:41.254Z,95312.81
2022-09-03T03:24:11.141Z,95310.88
2022-09-03T03:26:41.192Z,95312.75
2022-09-03T03:29:16.009Z,95306.84
2022-09-03T03:31:46.780Z,95313.84
2022-09-03T03:34:16.078Z,95314.38
2022-09-03T03:36:45.334Z,95316.53
2022-09-03T03:39:15.016Z,95316.84
2022-09-03T03:41:44.471Z,95317.94
2022-09-03T03:44:13.761Z,95313.38
2022-09-03T03:46:43.428Z,95318.72
2022-09-03T03:49:14.156Z,95324.91
2022-09-03T03:51:43.417Z,95324.69
2022-09-03T03:54:12.904Z,95322.53
2022-09-03T03:56:55.232Z,95321.47
2022-09-03T03:59:25.028Z,95327.66
2022-09-03T04:01:56.223Z,95325.50
2022-09-03T04:04:26.935Z,95323.03
2022-09-03T04:06:56.201Z,95311.75
2022-09-03T04:09:25.626Z,95317.16
2022-09-03T04:11:57.868Z,95330.84
2022-09-03T04:14:27.364Z,95331.91
2022-09-03T04:16:56.959Z,95335.69
2022-09-03T04:19:29.567Z,95340.00
2022-09-03T04:21:58.967Z,95337.25
2022-09-03T04:24:28.591Z,95342.09
2022-09-03T04:26:57.801Z,95347.75
2022-09-03T04:29:30.741Z,95352.56
2022-09-03T04:32:17.640Z,95352.03
2022-09-03T04:34:48.618Z,95353.91
2022-09-03T04:37:19.893Z,95352.28
2022-09-03T04:39:49.288Z,95360.84
2022-09-03T04:42:18.668Z,95367.56
2022-09-03T04:44:47.969Z,95368.09
2022-09-03T04:47:17.318Z,95381.00
2022-09-03T04:49:47.962Z,95377.78
2022-09-03T04:52:17.365Z,95381.00
2022-09-03T04:54:46.610Z,95383.69
2022-09-03T04:57:16.013Z,95396.59
2022-09-03T04:59:45.406Z,95395.25
2022-09-03T05:02:15.535Z,95402.47
2022-09-03T05:04:44.936Z,95407.84
2022-09-03T05:07:15.773Z,95402.97
2022-09-03T05:09:49.786Z,95397.03
2022-09-03T05:12:19.067Z,95384.34
2022-09-03T05:14:48.632Z,95384.81
2022-09-03T05:17:17.950Z,95386.16
2022-09-03T05:19:47.291Z,95379.13
2022-09-03T05:22:21.270Z,95375.34
2022-09-03T05:24:51.063Z,95383.41
2022-09-03T05:27:20.833Z,95373.69
2022-09-03T05:29:50.049Z,95390.31
2022-09-03T05:32:19.274Z,95398.13
2022-09-03T05:34:48.974Z,95397.84
2022-09-03T05:37:19.717Z,95406.47
2022-09-03T05:39:49.058Z,95395.41
2022-09-03T05:42:18.398Z,95402.13
2022-09-03T05:44:49.463Z,95395.38
2022-09-03T05:47:19.341Z,95401.53
2022-09-03T05:49:48.879Z,95397.75
2022-09-03T05:52:21.685Z,95390.72
2022-09-03T05:54:51.290Z,95389.63
2022-09-03T05:57:20.740Z,95395.25
2022-09-03T05:59:51.113Z,95394.69
2022-09-03T06:02:20.718Z,95392.53
2022-09-03T06:04:53.873Z,95393.56
2022-09-03T06:07:26.182Z,95390.59
2022-09-03T06:09:56.272Z,95390.84
2022-09-03T06:12:25.768Z,95400.25
2022-09-03T06:14:55.355Z,95411.50
2022-09-03T06:17:25.912Z,95404.47
2022-09-03T06:19:55.531Z,95409.31
2022-09-03T06:22:28.399Z,95404.16
2022-09-03T06:24:57.988Z,95412.47
2022-09-03T06:27:27.528Z,95419.72
2022-09-03T06:29:59.563Z,95425.41
2022-09-03T06:32:29.910Z,95418.41
2022-09-03T06:34:59.369Z,95426.75
2022-09-03T06:37:30.274Z,95421.06
2022-09-03T06:39:59.868Z,95425.06
2022-09-03T06:42:29.832Z,95419.63
2022-09-03T06:44:59.394Z,95422.84
2022-09-03T06:47:30.311Z,95427.91
2022-09-03T06:50:00.183Z,95425.25
2022-09-03T06:52:31.372Z,95424.97
2022-09-03T06:55:01.106Z,95435.44
2022-09-03T06:57:30.764Z,95432.75
2022-09-03T07:00:00.330Z,95431.38
2022-09-03T07:02:30.045Z,95429.44
2022-09-03T07:05:00.428Z,95429.66
2022-09-03T07:07:31.372Z,95430.13
2022-09-03T07:10:01.809Z,95435.53
2022-09-03T07:12:35.020Z,95427.09
2022-09-03T07:15:05.807Z,95427.84
2022-09-03T07:17:35.520Z,95428.28
2022-09-03T07:20:05.892Z,95436.00
2022-09-03T07:22:36.957Z,95424.88
2022-09-03T07:25:08.161Z,95434.22
2022-09-03T07:27:37.711Z,95434.13
2022-09-03T07:30:10.627Z,95433.22
2022-09-03T07:32:40.979Z,95434.16
2022-09-03T07:35:10.719Z,95429.34
2022-09-03T07:45:37.515Z,95435.63
2022-09-03T07:48:07.198Z,95438.69
2022-09-03T07:50:39.264Z,95433.59
2022-09-03T07:53:08.964Z,95428.38
2022-09-03T08:01:41.554Z,95431.94
2022-09-03T08:04:12.042Z,95432.53
2022-09-03T08:06:42.245Z,95420.41
2022-09-03T08:09:14.739Z,95426.13
2022-09-03T08:11:45.534Z,95420.72
2022-09-03T08:14:16.486Z,95426.31
2022-09-03T08:16:48.916Z,95427.22
2022-09-03T08:19:19.578Z,95434.34
2022-09-03T08:21:49.696Z,95437.16
2022-09-03T08:24:21.246Z,95435.34
2022-09-03T08:26:52.368Z,95436.84
2022-09-03T08:29:23.201Z,95443.94
2022-09-03T08:31:55.117Z,95432.25
2022-09-03T08:34:25.007Z,95430.72
2022-09-03T08:36:54.668Z,95430.47
2022-09-03T08:39:24.149Z,95425.41
2022-09-03T08:42:37.895Z,95425.97
2022-09-03T08:45:10.197Z,95430.34
2022-09-03T08:47:48.303Z,95424.22
2022-09-03T08:50:26.925Z,95423.16
2022-09-03T08:53:03.571Z,95418.94
2022-09-03T08:55:42.654Z,95425.53
2022-09-03T08:58:16.093Z,95426.53
2022-09-03T09:01:01.241Z,95426.72
2022-09-03T09:03:52.477Z,95421.97
2022-09-03T09:06:34.884Z,95420.06
2022-09-03T09:09:19.440Z,95421.97
2022-09-03T09:12:08.534Z,95419.59
2022-09-03T09:14:52.041Z,95419.75
2022-09-03T09:18:00.125Z,95411.22
2022-09-03T09:20:42.739Z,95412.81
2022-09-03T09:23:17.193Z,95401.91
2022-09-03T09:25:51.091Z,95406.81
2022-09-03T09:28:23.695Z,95404.50
2022-09-03T09:30:56.901Z,95409.56
2022-09-03T09:33:26.693Z,95408.97
2022-09-03T09:36:03.313Z,95408.97
2022-09-03T09:38:37.410Z,95392.03
2022-09-03T09:41:13.253Z,95392.16
2022-09-03T09:43:43.565Z,95385.84
2022-09-03T09:46:18.078Z,95384.72
2022-09-03T09:48:53.786Z,95386.28
2022-09-03T09:51:30.869Z,95390.88
2022-09-03T09:54:13.778Z,95387.69
2022-09-03T09:56:44.848Z,95382.81
2022-09-03T09:59:16.252Z,95380.56
2022-09-03T10:01:47.041Z,95386.94
2022-09-03T10:04:33.190Z,95387.28
2022-09-03T10:07:20.645Z,95384.31
2022-09-03T10:10:06.869Z,95381.47
2022-09-03T10:12:43.416Z,95379.84
2022-09-03T10:15:25.039Z,95379.63
2022-09-03T10:18:04.540Z,95374.59
2022-09-03T10:20:44.410Z,95375.16
2022-09-03T10:23:23.521Z,95382.59
2022-09-03T10:26:07.441Z,95383.84
2022-09-03T10:28:42.564Z,95389.47
2022-09-03T10:31:43.149Z,95394.16
2022-09-03T10:34:23.780Z,95390.16
2022-09-03T10:37:08.474Z,95393.22
2022-09-03T10:40:01.890Z,95394.56
2022-09-03T10:42:45.783Z,95383.06
2022-09-03T10:45:24.539Z,95386.03
2022-09-03T10:48:42.554Z,95376.69
2022-09-03T10:51:21.508Z,95377.03
2022-09-03T10:54:17.711Z,95382.38
2022-09-03T10:57:02.886Z,95383.06
2022-09-03T10:59:51.680Z,95381.69
2022-09-03T11:03:21.110Z,95386.13
2022-09-03T11:06:03.452Z,95381.09
2022-09-03T11:08:40.206Z,95381.06
2022-09-03T11:11:20.016Z,95371.19
2022-09-03T11:13:58.143Z,95368.03
2022-09-03T11:16:35.230Z,95357.09
2022-09-03T11:19:08.431Z,95354.69
2022-09-03T11:21:41.903Z,95353.09
2022-09-03T11:24:18.796Z,95360.78
2022-09-03T11:26:58.862Z,95347.91
2022-09-03T11:29:39.964Z,95348.28
2022-09-03T11:32:18.175Z,95354.13
2022-09-03T11:34:51.784Z,95353.25
2022-09-03T11:37:26.022Z,95354.13
2022-09-03T11:40:01.272Z,95346.59
2022-09-03T11:42:36.031Z,95338.81
2022-09-03T11:45:37.584Z,95335.88
2022-09-03T11:48:35.929Z,95330.53
2022-09-03T11:51:06.129Z,95328.22
2022-09-03T11:53:37.726Z,95331.34
2022-09-03T11:56:20.611Z,95325.72
2022-09-03T11:59:18.191Z,95317.72
2022-09-03T12:01:59.044Z,95324.59
2022-09-03T12:04:37.087Z,95313.41
2022-09-03T12:07:38.676Z,95316.44
2022-09-03T12:10:35.915Z,95316.09
2022-09-03T12:13:30.019Z,95313.38
2022-09-03T12:16:27.545Z,95314.31
2022-09-03T12:19:10.223Z,95324.56
2022-09-03T12:21:42.733Z,95307.56
2022-09-03T12:24:14.435Z,95312.47
2022-09-03T12:26:44.845Z,95311.88
2022-09-03T12:29:27.878Z,95312.84
2022-09-03T12:32:07.540Z,95313.75
2022-09-03T12:34:38.405Z,95311.81
2022-09-03T12:40:26.293Z,95308.56
2022-09-03T12:43:37.096Z,95312.91
2022-09-03T12:48:40.525Z,95307.06
2022-09-03T12:54:09.673Z,95294.66
2022-09-03T12:56:42.607Z,95292.00
2022-09-03T12:59:19.142Z,95286.97
2022-09-03T13:01:53.337Z,95279.94
2022-09-03T13:04:28.126Z,95279.63
2022-09-03T13:07:05.300Z,95277.28
2022-09-03T13:09:39.280Z,95268.53
2022-09-03T13:12:21.710Z,95274.50
2022-09-03T13:14:52.685Z,95276.47
2022-09-03T13:17:37.754Z,95285.81
2022-09-03T13:20:24.527Z,95303.03
2022-09-03T13:23:44.551Z,95306.56
2022-09-03T13:26:28.705Z,95320.63
2022-09-03T13:29:18.617Z,95331.00
2022-09-03T13:31:51.956Z,95330.16
2022-09-03T13:34:26.212Z,95325.47
2022-09-03T13:37:00.849Z,95324.16
2022-09-03T13:39:36.692Z,95323.91
2022-09-03T13:42:11.083Z,95326.09
2022-09-03T13:44:46.496Z,95328.81
2022-09-03T13:47:29.028Z,95327.91
2022-09-03T13:50:22.267Z,95332.44
2022-09-03T13:52:59.118Z,95346.72
2022-09-03T13:55:38.910Z,95356.28
2022-09-03T13:58:21.169Z,95375.47
2022-09-03T14:01:09.254Z,95390.63
2022-09-03T14:03:49.099Z,95401.22
2022-09-03T14:06:40.988Z,95416.47
2022-09-03T14:09:26.671Z,95424.69
2022-09-03T14:12:07.436Z,95450.28
2022-09-03T14:14:53.695Z,95442.84
2022-09-03T14:17:42.357Z,95440.84
2022-09-03T14:20:15.184Z,95437.03
2022-09-03T14:22:54.966Z,95437.38
2022-09-03T14:25:26.917Z,95436.09
2022-09-03T14:28:14.373Z,95444.06
2022-09-03T14:30:49.640Z,95430.69
2022-09-03T14:33:33.143Z,95439.47
2022-09-03T14:36:28.250Z,95446.84
2022-09-03T14:39:24.450Z,95443.28
2022-09-03T14:42:11.373Z,95453.97
2022-09-03T14:46:06.121Z,95468.38
2022-09-03T14:58:30.505Z,95456.16
2022-09-03T15:01:05.325Z,95433.78
2022-09-03T15:04:32.641Z,95424.84
2022-09-03T15:07:34.327Z,95424.19
2022-09-03T15:11:02.211Z,95423.56
2022-09-03T15:13:37.375Z,95423.25
2022-09-03T15:16:31.403Z,95426.06
2022-09-03T15:19:39.077Z,95418.03
2022-09-03T15:22:28.755Z,95435.78
2022-09-03T15:25:15.648Z,95449.53
2022-09-03T15:28:07.110Z,95458.34
2022-09-03T15:30:44.750Z,95460.56
2022-09-03T15:33:28.516Z,95456.09
2022-09-03T15:36:17.717Z,95447.78
2022-09-03T15:38:57.121Z,95453.38
2022-09-03T15:41:40.195Z,95456.88
2022-09-03T15:44:19.606Z,95463.28
2022-09-03T15:46:59.799Z,95469.69
2022-09-03T15:49:54.428Z,95467.72
2022-09-03T15:52:40.391Z,95461.25
2022-09-03T15:55:16.581Z,95460.56
2022-09-03T15:58:06.703Z,95457.50
2022-09-03T16:01:00.385Z,95456.88
2022-09-03T16:03:59.605Z,95454.63
2022-09-03T16:06:40.144Z,95457.75
2022-09-03T16:09:28.540Z,95444.13
2022-09-03T16:12:11.946Z,95438.06
2022-09-03T16:14:48.806Z,95433.41
2022-09-03T16:17:30.521Z,95434.69
2022-09-03T16:20:07.798Z,95426.84
2022-09-03T16:22:48.016Z,95429.09
2022-09-03T16:25:23.476Z,95423.63
2022-09-03T16:28:08.077Z,95422.63
2022-09-03T16:31:04.849Z,95431.72
2022-09-03T16:33:48.966Z,95430.94
2022-09-03T16:36:36.347Z,95442.91
2022-09-03T16:39:23.541Z,95444.34
2022-09-03T16:42:06.879Z,95445.47
2022-09-03T16:44:59.687Z,95450.41
2022-09-03T16:47:51.943Z,95444.84
2022-09-03T16:50:43.484Z,95443.91
2022-09-03T16:53:28.574Z,95436.19
2022-09-03T16:56:29.790Z,95436.69
2022-09-03T16:59:12.132Z,95437.81
2022-09-03T17:02:23.817Z,95441.19
2022-09-03T17:05:29.544Z,95440.16
2022-09-03T17:08:20.267Z,95439.31
2022-09-03T17:11:00.909Z,95437.84
2022-09-03T17:14:03.706Z,95434.78
2022-09-03T17:16:52.445Z,95440.66
2022-09-03T17:19:33.926Z,95440.28
2022-09-03T17:22:23.662Z,95435.31
2022-09-03T17:25:02.961Z,95429.47
2022-09-03T17:27:51.643Z,95441.09
2022-09-03T17:30:30.757Z,95437.88
2022-09-03T17:33:45.531Z,95441.97
2022-09-03T17:36:19.346Z,95437.47
2022-09-03T17:39:51.261Z,95436.28
2022-09-03T17:42:33.075Z,95430.97
2022-09-03T17:45:15.700Z,95440.34
2022-09-03T17:48:21.830Z,95448.44
2022-09-03T17:50:59.291Z,95438.47
2022-09-03T17:53:40.609Z,95439.91
2022-09-03T17:56:24.533Z,95443.03
2022-09-03T17:59:09.507Z,95448.81
2022-09-03T18:01:50.264Z,95456.25
2022-09-03T18:04:42.980Z,95462.88
2022-09-03T18:07:25.390Z,95465.41
2022-09-03T18:10:09.320Z,95468.50
2022-09-03T18:12:52.701Z,95471.63
2022-09-03T18:15:41.072Z,95482.38
2022-09-03T18:18:21.897Z,95485.47
2022-09-03T18:21:24.350Z,95486.19
2022-09-03T18:24:24.804Z,95493.91
2022-09-03T18:27:18.697Z,95496.00
2022-09-03T18:30:16.989Z,95491.88
2022-09-03T18:33:04.045Z,95492.84
2022-09-03T18:35:55.578Z,95494.97
2022-09-03T18:38:46.780Z,95503.25
2022-09-03T18:42:06.141Z,95505.09
2022-09-03T18:45:22.018Z,95507.44
2022-09-03T18:48:26.974Z,95516.81
2022-09-03T18:51:26.613Z,95512.38
2022-09-03T18:54:56.948Z,95521.94
2022-09-03T18:57:48.713Z,95523.69
2022-09-03T19:00:37.694Z,95515.44
2022-09-03T19:03:48.023Z,95520.41
2022-09-03T19:06:52.992Z,95524.53
2022-09-03T19:10:00.147Z,95522.41
2022-09-03T19:13:13.085Z,95521.66
2022-09-03T19:16:13.586Z,95516.41
2022-09-03T19:19:39.111Z,95520.25
2022-09-03T19:22:29.491Z,95519.50
2022-09-03T19:25:24.413Z,95514.97
2022-09-03T19:28:29.078Z,95520.47
2022-09-03T19:31:55.152Z,95520.22
2022-09-03T19:35:20.061Z,95527.81
2022-09-03T19:38:25.824Z,95532.66
2022-09-03T19:41:30.964Z,95523.72
2022-09-03T19:44:48.445Z,95537.53
2022-09-03T19:47:50.661Z,95534.31
2022-09-03T19:50:43.711Z,95535.63
2022-09-03T19:53:36.648Z,95531.28
2022-09-03T19:56:33.906Z,95541.00
2022-09-03T19:59:30.363Z,95543.69
2022-09-03T20:02:18.943Z,95539.28
2022-09-03T20:05:16.624Z,95540.63
2022-09-03T20:08:06.481Z,95549.78
2022-09-03T20:10:37.656Z,95555.69
2022-09-03T20:13:13.390Z,95557.88
2022-09-03T20:15:58.936Z,95564.16
2022-09-03T20:18:43.798Z,95563.41
2022-09-03T20:21:24.390Z,95569.69
2022-09-03T20:24:11.212Z,95568.69
2022-09-03T20:26:54.070Z,95575.47
2022-09-03T20:29:54.629Z,95573.06
2022-09-03T20:32:56.976Z,95578.47
2022-09-03T20:35:43.540Z,95579.03
2022-09-03T20:38:45.576Z,95583.63
2022-09-03T20:41:24.990Z,95585.38
2022-09-03T20:44:26.562Z,95588.38
2022-09-03T20:47:21.209Z,95590.03
2022-09-03T20:50:05.411Z,95588.44
2022-09-03T20:52:49.404Z,95585.75
2022-09-03T20:55:25.249Z,95579.63
2022-09-03T20:58:04.588Z,95579.38
2022-09-03T21:00:50.159Z,95584.53
2022-09-03T21:03:23.798Z,95591.59
2022-09-03T21:06:15.970Z,95603.50
2022-09-03T21:09:18.245Z,95598.41
2022-09-03T21:12:05.163Z,95603.06
2022-09-03T21:14:41.440Z,95604.72
2022-09-03T21:17:31.868Z,95601.75
2022-09-03T21:20:31.820Z,95606.09
2022-09-03T21:23:17.319Z,95606.38
2022-09-03T21:25:56.286Z,95611.53
2022-09-03T21:28:38.567Z,95614.25
2022-09-03T21:31:25.971Z,95619.16
2022-09-03T21:34:08.919Z,95620.00
2022-09-03T21:36:43.015Z,95622.16
2022-09-03T21:39:21.927Z,95620.81
2022-09-03T21:42:02.573Z,95619.75
2022-09-03T21:44:53.198Z,95626.22
2022-09-03T21:47:25.931Z,95622.72
2022-09-03T21:50:10.912Z,95621.91
2022-09-03T21:52:53.183Z,95631.06
2022-09-03T21:55:32.379Z,95617.28
2022-09-03T21:58:21.288Z,95624.31
2022-09-03T22:00:56.957Z,95621.06
2022-09-03T22:03:26.624Z,95626.19
2022-09-03T22:06:04.809Z,95626.47
2022-09-03T22:08:45.473Z,95625.13
2022-09-03T22:11:24.852Z,95623.53
2022-09-03T22:14:07.364Z,95625.72
2022-09-03T22:16:47.142Z,95625.19
2022-09-03T22:19:18.116Z,95617.94
2022-09-03T22:21:59.593Z,95621.47
2022-09-03T22:24:40.807Z,95620.41
2022-09-03T22:27:20.425Z,95620.66
2022-09-03T22:30:05.018Z,95626.63
2022-09-03T22:32:54.893Z,95628.50
2022-09-03T22:35:46.464Z,95622.31
2022-09-03T22:39:11.779Z,95624.47
2022-09-03T22:42:07.724Z,95610.44
2022-09-03T22:45:09.947Z,95615.31
2022-09-03T22:47:54.253Z,95621.53
2022-09-03T22:50:32.912Z,95624.75
2022-09-03T22:53:15.035Z,95622.34
2022-09-03T22:55:58.740Z,95623.16
2022-09-03T22:58:36.791Z,95629.06
2022-09-03T23:01:16.503Z,95626.66
2022-09-03T23:03:58.836Z,95629.63
2022-09-03T23:06:35.656Z,95629.38
2022-09-03T23:09:09.360Z,95625.03
2022-09-03T23:11:45.523Z,95624.25
2022-09-03T23:14:24.145Z,95627.22
2022-09-03T23:17:01.180Z,95621.81
2022-09-03T23:19:40.994Z,95619.41
2022-09-03T23:22:19.600Z,95626.69
2022-09-03T23:24:55.425Z,95625.59
2022-09-03T23:27:36.321Z,95624.53
2022-09-03T23:30:08.647Z,95627.50
2022-09-03T23:32:38.426Z,95625.88
2022-09-03T23:35:16.185Z,95627.50
2022-09-03T23:38:04.564Z,95626.16
2022-09-03T23:40:47.749Z,95635.31
2022-09-03T23:44:04.171Z,95635.91
2022-09-03T23:46:43.313Z,95637.50
2022-09-03T23:49:42.166Z,95636.44
2022-09-03T23:52:49.891Z,95634.00
2022-09-03T23:55:40.957Z,95636.97
2022-09-03T23:58:23.475Z,95634.56
